Time;durP1;ratioP1;P1;durP2;ratioP2;P2;SDS_P1;SDS_P2;PMS_P1;PMS_P2;Temp;Humidity;BMP_temperature;BMP_pressure;BME280_temperature;BME280_humidity;BME280_pressure;Samples;Min_cycle;Max_cycle;Signal;HPM_P1;HPM_P2
2023/07/29 00:02:32;0.00;0.00;0.62;0.00;0.00;0.62;2.50;2.20;;;30.30;31.20;;;;;;2257031;61;20440;-63
2023/07/29 00:05:17;0.00;0.00;0.62;0.00;0.00;0.62;2.60;2.10;;;30.30;31.10;;;;;;2259621;61;20365;-63
2023/07/29 00:08:03;0.00;0.00;0.62;0.00;0.00;0.62;2.87;2.60;;;30.30;31.10;;;;;;2260328;61;20928;-62
2023/07/29 00:10:48;0.00;0.00;0.62;0.00;0.00;0.62;2.10;1.80;;;30.30;31.20;;;;;;2260786;61;20365;-62
2023/07/29 00:13:32;0.00;0.00;0.62;0.00;0.00;0.62;2.73;2.40;;;30.20;31.10;;;;;;2260850;61;20928;-62
2023/07/29 00:16:17;0.00;0.00;0.62;0.00;0.00;0.62;2.07;1.83;;;30.20;31.10;;;;;;2257517;61;20900;-62
2023/07/29 00:19:03;0.00;0.00;0.62;0.00;0.00;0.62;2.20;2.00;;;30.20;31.80;;;;;;2260844;61;20385;-62
2023/07/29 00:21:48;0.00;0.00;0.62;0.00;0.00;0.62;2.30;2.10;;;30.20;31.10;;;;;;2260429;61;20824;-63
2023/07/29 00:24:34;0.00;0.00;0.62;0.00;0.00;0.62;2.43;2.10;;;30.20;31.10;;;;;;2260852;61;20365;-62
2023/07/29 00:27:18;0.00;0.00;0.62;0.00;0.00;0.62;2.20;1.97;;;30.20;31.10;;;;;;2260854;61;20365;-63
2023/07/29 00:30:05;0.00;0.00;0.62;0.00;0.00;0.62;2.60;2.37;;;30.20;31.10;;;;;;2260200;61;20416;-63
2023/07/29 00:32:49;0.00;0.00;0.62;0.00;0.00;0.62;2.53;1.70;;;30.20;31.10;;;;;;2260870;61;20423;-64
2023/07/29 00:35:35;0.00;0.00;0.62;0.00;0.00;0.62;2.80;2.17;;;30.20;31.10;;;;;;2257763;61;20361;-63
2023/07/29 00:38:20;0.00;0.00;0.62;0.00;0.00;0.62;2.20;2.00;;;30.20;31.80;;;;;;2260195;61;20420;-64
2023/07/29 00:41:07;0.00;0.00;0.62;0.00;0.00;0.62;2.27;1.83;;;30.20;31.10;;;;;;2257543;61;20427;-63
2023/07/29 00:43:53;0.00;0.00;0.62;0.00;0.00;0.62;2.40;2.00;;;30.20;31.20;;;;;;2257172;61;20452;-67
2023/07/29 00:46:40;0.00;0.00;0.62;0.00;0.00;0.62;2.10;1.67;;;30.20;31.10;;;;;;2257718;61;20901;-64
2023/07/29 00:49:25;0.00;0.00;0.62;0.00;0.00;0.62;2.20;1.93;;;30.20;31.10;;;;;;2257250;61;20376;-64
2023/07/29 00:52:12;0.00;0.00;0.62;0.00;0.00;0.62;2.60;1.70;;;30.20;31.10;;;;;;2257269;61;20358;-65
2023/07/29 00:54:56;0.00;0.00;0.62;0.00;0.00;0.62;2.10;1.80;;;30.20;31.10;;;;;;2260893;61;20893;-64
2023/07/29 00:57:47;0.00;0.00;0.62;0.00;0.00;0.62;2.07;1.83;;;30.20;31.10;;;;;;2260714;61;20422;-65
2023/07/29 01:00:33;0.00;0.00;0.62;0.00;0.00;0.62;2.20;1.80;;;30.20;31.10;;;;;;2259820;61;20428;-65
2023/07/29 01:03:17;0.00;0.00;0.62;0.00;0.00;0.62;2.10;1.90;;;30.20;31.80;;;;;;2260884;61;20826;-65
2023/07/29 01:06:13;0.00;0.00;0.62;0.00;0.00;0.62;2.33;1.90;;;30.20;31.10;;;;;;2253253;61;20917;-65
2023/07/29 01:09:03;0.00;0.00;0.62;0.00;0.00;0.62;2.20;1.60;;;30.20;31.10;;;;;;2256631;61;20386;-65
2023/07/29 01:12:01;0.00;0.00;0.62;0.00;0.00;0.62;2.70;1.57;;;30.20;31.20;;;;;;2256851;61;20358;-69
2023/07/29 01:14:55;0.00;0.00;0.62;0.00;0.00;0.62;1.90;1.50;;;30.20;31.10;;;;;;2256499;61;20390;-65
2023/07/29 01:17:46;0.00;0.00;0.62;0.00;0.00;0.62;2.80;2.07;;;30.10;31.00;;;;;;2256708;61;20953;-64
2023/07/29 01:20:33;0.00;0.00;0.62;0.00;0.00;0.62;2.93;1.60;;;30.10;31.00;;;;;;2253067;61;20386;-65
2023/07/29 01:23:24;0.00;0.00;0.62;0.00;0.00;0.62;2.43;1.50;;;30.10;31.10;;;;;;2256851;61;20513;-65
2023/07/29 01:26:09;0.00;0.00;0.62;0.00;0.00;0.62;2.00;1.53;;;30.10;31.10;;;;;;2253548;61;20362;-64
2023/07/29 01:28:53;0.00;0.00;0.62;0.00;0.00;0.62;2.60;1.63;;;30.10;31.00;;;;;;2255704;61;20977;-64
2023/07/29 01:31:44;0.00;0.00;0.62;0.00;0.00;0.62;1.80;1.40;;;30.10;31.10;;;;;;2256660;61;20871;-64
2023/07/29 01:34:38;0.00;0.00;0.62;0.00;0.00;0.62;1.90;1.40;;;30.10;31.10;;;;;;2256627;61;20417;-63
2023/07/29 01:37:27;0.00;0.00;0.62;0.00;0.00;0.62;1.60;1.13;;;30.10;31.10;;;;;;2256581;61;20768;-64
2023/07/29 01:40:14;0.00;0.00;0.62;0.00;0.00;0.62;2.17;1.60;;;30.10;31.10;;;;;;2253113;61;20401;-64
2023/07/29 01:42:59;0.00;0.00;0.62;0.00;0.00;0.62;1.93;1.50;;;30.10;31.10;;;;;;2256249;61;20370;-65
2023/07/29 01:45:44;0.00;0.00;0.62;0.00;0.00;0.62;2.00;1.50;;;30.10;31.00;;;;;;2253489;61;20393;-64
2023/07/29 01:48:31;0.00;0.00;0.62;0.00;0.00;0.62;1.90;1.60;;;30.10;31.00;;;;;;2253159;61;20513;-64
2023/07/29 01:51:16;0.00;0.00;0.62;0.00;0.00;0.62;1.80;1.30;;;30.10;31.00;;;;;;2252886;61;20425;-64
2023/07/29 01:54:01;0.00;0.00;0.62;0.00;0.00;0.62;1.90;1.63;;;30.10;31.10;;;;;;2253520;61;20374;-64
2023/07/29 01:56:47;0.00;0.00;0.62;0.00;0.00;0.62;2.00;1.30;;;30.10;31.10;;;;;;2256537;61;20886;-64
2023/07/29 01:59:31;0.00;0.00;0.62;0.00;0.00;0.62;2.00;1.73;;;30.10;31.10;;;;;;2252484;61;20840;-64
2023/07/29 02:02:16;0.00;0.00;0.62;0.00;0.00;0.62;2.23;1.50;;;30.10;31.10;;;;;;2256493;61;20813;-64
2023/07/29 02:05:00;0.00;0.00;0.62;0.00;0.00;0.62;2.10;1.57;;;30.10;31.10;;;;;;2253165;61;20452;-64
2023/07/29 02:07:45;0.00;0.00;0.62;0.00;0.00;0.62;2.03;1.37;;;30.10;31.10;;;;;;2256665;61;20382;-68
2023/07/29 02:10:30;0.00;0.00;0.62;0.00;0.00;0.62;2.30;1.60;;;30.10;31.10;;;;;;2253443;61;20369;-64
2023/07/29 02:13:16;0.00;0.00;0.62;0.00;0.00;0.62;1.70;1.27;;;30.00;31.00;;;;;;2255977;61;20416;-64
2023/07/29 02:16:01;0.00;0.00;0.62;0.00;0.00;0.62;2.10;1.40;;;30.00;31.00;;;;;;2253490;61;20795;-63
2023/07/29 02:18:45;0.00;0.00;0.62;0.00;0.00;0.62;2.23;1.60;;;30.00;31.00;;;;;;2256474;61;20432;-62
2023/07/29 02:21:30;0.00;0.00;0.62;0.00;0.00;0.62;1.80;1.40;;;30.00;31.00;;;;;;2253223;61;21007;-63
2023/07/29 02:24:15;0.00;0.00;0.62;0.00;0.00;0.62;1.80;1.40;;;30.00;31.00;;;;;;2253411;61;20442;-63
2023/07/29 02:27:00;0.00;0.00;0.62;0.00;0.00;0.62;2.07;1.60;;;30.00;31.00;;;;;;2256606;61;20357;-62
2023/07/29 02:29:46;0.00;0.00;0.62;0.00;0.00;0.62;1.70;1.27;;;30.00;31.00;;;;;;2253351;61;20350;-63
2023/07/29 02:32:31;0.00;0.00;0.62;0.00;0.00;0.62;1.87;1.47;;;30.00;31.70;;;;;;2256300;61;20400;-62
2023/07/29 02:35:16;0.00;0.00;0.62;0.00;0.00;0.62;1.77;1.30;;;30.00;31.70;;;;;;2256537;61;20358;-62
2023/07/29 02:38:01;0.00;0.00;0.62;0.00;0.00;0.62;1.97;1.40;;;30.00;31.00;;;;;;2253518;61;20517;-63
2023/07/29 02:40:46;0.00;0.00;0.62;0.00;0.00;0.62;1.63;1.20;;;30.00;31.00;;;;;;2256762;61;20384;-63
2023/07/29 02:43:30;0.00;0.00;0.62;0.00;0.00;0.62;1.70;1.33;;;30.00;31.10;;;;;;2253115;61;20441;-64
2023/07/29 02:46:17;0.00;0.00;0.62;0.00;0.00;0.62;1.73;1.30;;;30.00;31.00;;;;;;2256833;61;20377;-62
2023/07/29 02:49:03;0.00;0.00;0.62;0.00;0.00;0.62;1.70;1.33;;;30.00;31.00;;;;;;2253055;61;20840;-63
2023/07/29 02:51:49;0.00;0.00;0.62;0.00;0.00;0.62;1.70;1.30;;;30.00;31.00;;;;;;2253433;61;21061;-63
2023/07/29 02:54:34;0.00;0.00;0.62;0.00;0.00;0.62;1.70;1.20;;;30.00;31.00;;;;;;2256340;61;20436;-63
2023/07/29 02:57:19;0.00;0.00;0.62;0.00;0.00;0.62;1.83;1.50;;;30.00;31.00;;;;;;2256064;61;20405;-64
2023/07/29 03:00:07;0.00;0.00;0.62;0.00;0.00;0.62;1.70;1.40;;;30.00;31.10;;;;;;2256387;61;20705;-63
2023/07/29 03:02:54;0.00;0.00;0.62;0.00;0.00;0.62;3.13;1.70;;;30.00;31.00;;;;;;2253413;61;20443;-63
2023/07/29 03:05:38;0.00;0.00;0.62;0.00;0.00;0.62;1.70;1.20;;;30.00;31.10;;;;;;2256415;61;20894;-60
2023/07/29 03:08:23;0.00;0.00;0.62;0.00;0.00;0.62;1.70;1.20;;;29.90;31.00;;;;;;2253222;61;20428;-62
2023/07/29 03:11:10;0.00;0.00;0.62;0.00;0.00;0.62;1.77;1.20;;;30.00;31.00;;;;;;2253320;61;20358;-65
2023/07/29 03:13:55;0.00;0.00;0.62;0.00;0.00;0.62;1.67;1.20;;;30.00;31.10;;;;;;2256495;61;20497;-63
2023/07/29 03:16:40;0.00;0.00;0.62;0.00;0.00;0.62;1.70;1.10;;;30.00;31.00;;;;;;2253632;61;20442;-64
2023/07/29 03:19:26;0.00;0.00;0.62;0.00;0.00;0.62;1.50;1.10;;;30.00;31.70;;;;;;2252711;61;20474;-64
2023/07/29 03:22:10;0.00;0.00;0.62;0.00;0.00;0.62;1.73;1.17;;;29.90;31.00;;;;;;2253355;61;20397;-63
2023/07/29 03:24:56;0.00;0.00;0.62;0.00;0.00;0.62;1.70;1.20;;;29.90;31.00;;;;;;2256410;61;20406;-62
2023/07/29 03:27:40;0.00;0.00;0.62;0.00;0.00;0.62;1.60;1.30;;;29.90;31.00;;;;;;2256488;61;20381;-63
2023/07/29 03:30:25;0.00;0.00;0.62;0.00;0.00;0.62;1.80;1.20;;;29.90;31.00;;;;;;2253168;61;20749;-62
2023/07/29 03:33:11;0.00;0.00;0.62;0.00;0.00;0.62;1.67;1.27;;;29.90;31.00;;;;;;2253577;61;20778;-61
2023/07/29 03:35:57;0.00;0.00;0.62;0.00;0.00;0.62;1.60;1.20;;;29.90;31.00;;;;;;2253383;61;20346;-62
2023/07/29 03:38:41;0.00;0.00;0.62;0.00;0.00;0.62;2.67;1.20;;;29.90;31.00;;;;;;2253916;61;20435;-61
2023/07/29 03:41:26;0.00;0.00;0.62;0.00;0.00;0.62;1.50;0.97;;;29.90;31.00;;;;;;2253728;61;20424;-62
2023/07/29 03:44:11;0.00;0.00;0.62;0.00;0.00;0.62;1.90;1.20;;;29.90;31.00;;;;;;2257479;61;20358;-63
2023/07/29 03:46:56;0.00;0.00;0.62;0.00;0.00;0.62;2.03;1.30;;;29.90;31.00;;;;;;2253870;61;20354;-62
2023/07/29 03:49:41;0.00;0.00;0.62;0.00;0.00;0.62;1.50;1.10;;;29.90;31.00;;;;;;2253632;61;20378;-63
2023/07/29 03:52:27;0.00;0.00;0.62;0.00;0.00;0.62;2.37;1.30;;;29.90;31.00;;;;;;2254092;61;20362;-62
2023/07/29 03:55:12;0.00;0.00;0.62;0.00;0.00;0.62;1.67;1.20;;;29.90;31.00;;;;;;2257222;61;20362;-62
2023/07/29 03:57:57;0.00;0.00;0.62;0.00;0.00;0.62;1.37;0.97;;;29.90;31.00;;;;;;2253555;61;20393;-63
2023/07/29 04:00:42;0.00;0.00;0.62;0.00;0.00;0.62;1.90;1.20;;;29.90;31.00;;;;;;2257022;61;20385;-63
2023/07/29 04:03:27;0.00;0.00;0.62;0.00;0.00;0.62;1.97;1.20;;;29.90;31.00;;;;;;2253817;61;20408;-63
2023/07/29 04:06:13;0.00;0.00;0.62;0.00;0.00;0.62;1.87;1.30;;;29.90;31.00;;;;;;2492273;53;20440;-63
2023/07/29 04:09:00;0.00;0.00;0.62;0.00;0.00;0.62;1.40;1.00;;;29.90;31.00;;;;;;2258985;61;20445;-63
2023/07/29 04:11:45;0.00;0.00;0.62;0.00;0.00;0.62;1.77;1.23;;;29.90;31.00;;;;;;2259472;61;20376;-63
2023/07/29 04:14:29;0.00;0.00;0.62;0.00;0.00;0.62;1.70;1.30;;;29.90;31.00;;;;;;2260300;61;20366;-64
2023/07/29 04:17:14;0.00;0.00;0.62;0.00;0.00;0.62;2.87;1.20;;;29.90;31.00;;;;;;2257164;61;20370;-64
2023/07/29 04:19:59;0.00;0.00;0.62;0.00;0.00;0.62;1.80;1.23;;;29.90;31.00;;;;;;2256188;61;20412;-63
2023/07/29 04:22:50;0.00;0.00;0.62;0.00;0.00;0.62;1.87;1.27;;;29.90;31.00;;;;;;2259628;61;20427;-64
2023/07/29 04:25:36;0.00;0.00;0.62;0.00;0.00;0.62;1.73;1.20;;;29.90;31.00;;;;;;2259536;61;20354;-64
2023/07/29 04:28:21;0.00;0.00;0.62;0.00;0.00;0.62;1.90;1.30;;;29.90;31.00;;;;;;2259461;61;20394;-64
2023/07/29 04:31:06;0.00;0.00;0.62;0.00;0.00;0.62;1.43;0.90;;;29.90;31.00;;;;;;2259886;61;20915;-64
2023/07/29 04:33:51;0.00;0.00;0.62;0.00;0.00;0.62;1.77;1.30;;;29.90;31.00;;;;;;2259270;61;20413;-65
2023/07/29 04:36:36;0.00;0.00;0.62;0.00;0.00;0.62;1.90;1.53;;;29.90;31.00;;;;;;2260025;61;20763;-64
2023/07/29 04:39:21;0.00;0.00;0.62;0.00;0.00;0.62;1.63;1.03;;;29.90;31.00;;;;;;2259706;61;20421;-64
2023/07/29 04:42:07;0.00;0.00;0.62;0.00;0.00;0.62;1.50;1.00;;;29.90;31.00;;;;;;2259628;61;20429;-65
2023/07/29 04:44:53;0.00;0.00;0.62;0.00;0.00;0.62;1.63;1.27;;;29.80;31.00;;;;;;2259806;61;20393;-64
2023/07/29 04:47:38;0.00;0.00;0.62;0.00;0.00;0.62;1.77;1.43;;;29.90;31.00;;;;;;2259568;61;20385;-65
2023/07/29 04:50:23;0.00;0.00;0.62;0.00;0.00;0.62;1.60;1.30;;;29.90;31.00;;;;;;2259436;61;20374;-67
2023/07/29 04:53:08;0.00;0.00;0.62;0.00;0.00;0.62;1.60;1.30;;;29.90;31.00;;;;;;2259771;61;20409;-64
2023/07/29 04:55:53;0.00;0.00;0.62;0.00;0.00;0.62;1.63;1.17;;;29.80;30.90;;;;;;2259460;61;20829;-65
2023/07/29 04:58:40;0.00;0.00;0.62;0.00;0.00;0.62;1.50;1.00;;;29.90;31.00;;;;;;2259104;61;20386;-65
2023/07/29 05:01:25;0.00;0.00;0.62;0.00;0.00;0.62;1.87;1.20;;;29.80;31.00;;;;;;2260019;61;20426;-63
2023/07/29 05:04:10;0.00;0.00;0.62;0.00;0.00;0.62;1.60;1.20;;;29.80;30.90;;;;;;2259987;61;20864;-63
2023/07/29 05:06:55;0.00;0.00;0.62;0.00;0.00;0.62;1.77;1.20;;;29.80;31.00;;;;;;2261095;61;20368;-63
2023/07/29 05:09:40;0.00;0.00;0.62;0.00;0.00;0.62;1.90;1.33;;;29.80;31.00;;;;;;2259767;61;20772;-64
2023/07/29 05:12:26;0.00;0.00;0.62;0.00;0.00;0.62;1.80;1.27;;;29.80;31.00;;;;;;2260950;61;20365;-65
2023/07/29 05:15:12;0.00;0.00;0.62;0.00;0.00;0.62;1.73;1.20;;;29.80;31.00;;;;;;2261006;61;20365;-64
2023/07/29 05:17:57;0.00;0.00;0.62;0.00;0.00;0.62;1.67;1.10;;;29.80;31.00;;;;;;2260392;61;20389;-63
2023/07/29 05:20:42;0.00;0.00;0.62;0.00;0.00;0.62;1.90;1.27;;;29.80;31.00;;;;;;2264308;61;20377;-65
2023/07/29 05:23:27;0.00;0.00;0.62;0.00;0.00;0.62;2.43;1.47;;;29.80;31.00;;;;;;2264013;61;20392;-65
2023/07/29 05:26:11;0.00;0.00;0.62;0.00;0.00;0.62;1.67;1.23;;;29.80;31.00;;;;;;2260336;61;20404;-64
2023/07/29 05:28:56;0.00;0.00;0.62;0.00;0.00;0.62;2.30;1.50;;;29.80;31.00;;;;;;2263576;61;20412;-64
2023/07/29 05:31:42;0.00;0.00;0.62;0.00;0.00;0.62;1.70;1.33;;;29.80;31.00;;;;;;2264084;61;20357;-67
2023/07/29 05:34:27;0.00;0.00;0.62;0.00;0.00;0.62;1.80;1.37;;;29.80;31.00;;;;;;2258034;61;20377;-65
2023/07/29 05:37:12;0.00;0.00;0.62;0.00;0.00;0.62;1.70;1.20;;;29.80;31.00;;;;;;2263987;61;20895;-65
2023/07/29 05:39:57;0.00;0.00;0.62;0.00;0.00;0.62;2.37;1.37;;;29.80;31.00;;;;;;2260071;61;20376;-65
2023/07/29 05:42:42;0.00;0.00;0.62;0.00;0.00;0.62;1.90;1.30;;;29.80;31.00;;;;;;2260682;61;20357;-64
2023/07/29 05:45:26;0.00;0.00;0.62;0.00;0.00;0.62;1.97;1.60;;;29.80;31.00;;;;;;2264256;61;20368;-64
2023/07/29 05:48:13;0.00;0.00;0.62;0.00;0.00;0.62;2.20;1.70;;;29.80;31.00;;;;;;2305913;40;20411;-67
2023/07/29 05:50:57;0.00;0.00;0.62;0.00;0.00;0.62;3.90;1.60;;;29.80;31.00;;;;;;2272169;61;20391;-64
2023/07/29 05:53:42;0.00;0.00;0.62;0.00;0.00;0.62;2.17;1.90;;;29.80;31.00;;;;;;2271231;61;20401;-64
2023/07/29 05:56:27;0.00;0.00;0.62;0.00;0.00;0.62;2.07;1.50;;;29.80;31.70;;;;;;2271615;61;20370;-65
2023/07/29 05:59:12;0.00;0.00;0.62;0.00;0.00;0.62;1.83;1.40;;;29.80;31.10;;;;;;2269918;61;21043;-65
2023/07/29 06:01:57;0.00;0.00;0.62;0.00;0.00;0.62;2.30;1.80;;;29.80;31.10;;;;;;2267480;61;20391;-65
2023/07/29 06:04:43;0.00;0.00;0.62;0.00;0.00;0.62;2.07;1.60;;;29.80;31.10;;;;;;2270339;61;20414;-65
2023/07/29 06:07:30;0.00;0.00;0.62;0.00;0.00;0.62;2.60;1.70;;;29.80;31.10;;;;;;2268240;61;20417;-65
2023/07/29 06:10:18;0.00;0.00;0.62;0.00;0.00;0.62;2.27;1.60;;;29.80;31.10;;;;;;2263916;61;20363;-63
2023/07/29 06:13:03;0.00;0.00;0.62;0.00;0.00;0.62;2.40;1.60;;;29.80;31.10;;;;;;2267588;61;20904;-65
2023/07/29 06:15:48;0.00;0.00;0.62;0.00;0.00;0.62;2.17;1.80;;;29.80;31.10;;;;;;2268137;61;20368;-64
2023/07/29 06:18:32;0.00;0.00;0.62;0.00;0.00;0.62;3.20;1.70;;;29.80;31.10;;;;;;2263987;61;20396;-65
2023/07/29 06:21:19;0.00;0.00;0.62;0.00;0.00;0.62;2.30;1.60;;;29.80;31.10;;;;;;2264546;61;20406;-64
2023/07/29 06:24:04;0.00;0.00;0.62;0.00;0.00;0.62;2.40;1.90;;;29.80;31.10;;;;;;2264032;61;20816;-65
2023/07/29 06:26:50;0.00;0.00;0.62;0.00;0.00;0.62;2.10;1.70;;;29.80;31.10;;;;;;2264180;61;20873;-65
2023/07/29 06:29:34;0.00;0.00;0.62;0.00;0.00;0.62;2.20;1.90;;;29.80;31.10;;;;;;2267497;61;20415;-64
2023/07/29 06:32:19;0.00;0.00;0.62;0.00;0.00;0.62;2.47;1.73;;;29.80;31.10;;;;;;2267513;61;20454;-65
2023/07/29 06:35:04;0.00;0.00;0.62;0.00;0.00;0.62;2.40;2.10;;;29.80;31.10;;;;;;2267518;61;20387;-64
2023/07/29 06:37:50;0.00;0.00;0.62;0.00;0.00;0.62;2.10;1.80;;;29.80;31.10;;;;;;2267936;61;20430;-64
2023/07/29 06:40:35;0.00;0.00;0.62;0.00;0.00;0.62;2.33;1.70;;;29.80;31.20;;;;;;2266973;61;20398;-67
2023/07/29 06:43:19;0.00;0.00;0.62;0.00;0.00;0.62;2.27;1.60;;;29.80;31.10;;;;;;2267862;61;20816;-64
2023/07/29 06:46:04;0.00;0.00;0.62;0.00;0.00;0.62;2.10;1.90;;;29.80;31.10;;;;;;2267357;61;20863;-65
2023/07/29 06:48:49;0.00;0.00;0.62;0.00;0.00;0.62;2.53;2.07;;;29.80;31.10;;;;;;2267441;61;20456;-65
2023/07/29 06:51:35;0.00;0.00;0.62;0.00;0.00;0.62;2.63;2.33;;;29.80;31.10;;;;;;2264590;61;20360;-65
2023/07/29 06:54:24;0.00;0.00;0.62;0.00;0.00;0.62;2.60;1.70;;;29.80;31.20;;;;;;2267230;61;20744;-65
2023/07/29 06:57:09;0.00;0.00;0.62;0.00;0.00;0.62;4.07;2.27;;;29.80;31.20;;;;;;2267500;61;20417;-63
2023/07/29 06:59:54;0.00;0.00;0.62;0.00;0.00;0.62;2.67;2.00;;;29.80;31.20;;;;;;2267016;61;20403;-63
2023/07/29 07:02:39;0.00;0.00;0.62;0.00;0.00;0.62;2.33;1.73;;;29.80;31.20;;;;;;2266548;61;20427;-62
2023/07/29 07:05:23;0.00;0.00;0.62;0.00;0.00;0.62;2.60;1.90;;;29.80;31.20;;;;;;2267719;61;20454;-62
2023/07/29 07:08:08;0.00;0.00;0.62;0.00;0.00;0.62;2.00;1.70;;;29.80;31.20;;;;;;2267676;61;20415;-63
2023/07/29 07:10:54;0.00;0.00;0.62;0.00;0.00;0.62;3.10;2.07;;;29.80;31.20;;;;;;2264514;61;20825;-63
2023/07/29 07:13:38;0.00;0.00;0.62;0.00;0.00;0.62;2.10;1.70;;;29.80;31.20;;;;;;2268870;61;20368;-63
2023/07/29 07:16:23;0.00;0.00;0.62;0.00;0.00;0.62;2.50;2.30;;;29.80;31.30;;;;;;2267963;61;20414;-63
2023/07/29 07:19:08;0.00;0.00;0.62;0.00;0.00;0.62;2.80;2.03;;;29.80;31.90;;;;;;2267828;61;20382;-62
2023/07/29 07:21:52;0.00;0.00;0.62;0.00;0.00;0.62;3.63;2.00;;;29.80;31.20;;;;;;2268758;61;20387;-65
2023/07/29 07:24:37;0.00;0.00;0.62;0.00;0.00;0.62;2.57;1.67;;;29.80;31.30;;;;;;2268458;61;20380;-65
2023/07/29 07:27:23;0.00;0.00;0.62;0.00;0.00;0.62;2.70;1.80;;;29.80;31.30;;;;;;2268455;61;20539;-65
2023/07/29 07:30:09;0.00;0.00;0.62;0.00;0.00;0.62;2.20;1.70;;;29.80;31.30;;;;;;2268175;61;20383;-66
2023/07/29 07:32:53;0.00;0.00;0.62;0.00;0.00;0.62;2.23;1.73;;;29.80;31.30;;;;;;2268574;61;20615;-67
2023/07/29 07:35:38;0.00;0.00;0.62;0.00;0.00;0.62;2.40;1.83;;;29.80;31.30;;;;;;2268950;61;20396;-65
2023/07/29 07:38:22;0.00;0.00;0.62;0.00;0.00;0.62;2.40;1.63;;;29.80;31.30;;;;;;2268094;61;20379;-66
2023/07/29 07:41:07;0.00;0.00;0.62;0.00;0.00;0.62;2.47;1.80;;;29.80;31.30;;;;;;2268331;61;20410;-63
2023/07/29 07:43:53;0.00;0.00;0.62;0.00;0.00;0.62;2.90;1.80;;;29.80;31.30;;;;;;2268467;61;20930;-62
2023/07/29 07:46:38;0.00;0.00;0.62;0.00;0.00;0.62;2.70;2.10;;;29.80;31.30;;;;;;2264757;61;20364;-63
2023/07/29 07:49:24;0.00;0.00;0.62;0.00;0.00;0.62;1.90;1.60;;;29.80;31.30;;;;;;2482211;40;20371;31
2023/07/29 07:52:09;0.00;0.00;0.62;0.00;0.00;0.62;2.00;1.50;;;29.80;31.30;;;;;;2260918;61;20422;-62
2023/07/29 07:54:54;0.00;0.00;0.62;0.00;0.00;0.62;2.20;1.87;;;29.80;31.30;;;;;;2260128;61;20412;-63
2023/07/29 07:57:39;0.00;0.00;0.62;0.00;0.00;0.62;2.20;1.90;;;29.80;31.30;;;;;;2261029;61;21013;-62
2023/07/29 08:00:26;0.00;0.00;0.62;0.00;0.00;0.62;2.60;2.00;;;29.80;31.40;;;;;;2263533;61;20360;-63
2023/07/29 08:03:10;0.00;0.00;0.62;0.00;0.00;0.62;2.63;1.80;;;29.80;31.40;;;;;;2264493;61;20369;-63
2023/07/29 08:05:55;0.00;0.00;0.62;0.00;0.00;0.62;2.30;1.67;;;29.80;31.40;;;;;;2264182;61;20412;-62
2023/07/29 08:08:40;0.00;0.00;0.62;0.00;0.00;0.62;2.47;1.90;;;29.80;31.50;;;;;;2263655;61;20519;-63
2023/07/29 08:11:25;0.00;0.00;0.62;0.00;0.00;0.62;2.13;1.50;;;29.80;31.50;;;;;;2264011;61;20365;-63
2023/07/29 08:14:10;0.00;0.00;0.62;0.00;0.00;0.62;2.47;1.83;;;29.80;31.50;;;;;;2264257;61;20360;-63
2023/07/29 08:16:56;0.00;0.00;0.62;0.00;0.00;0.62;1.90;1.70;;;29.90;31.50;;;;;;2264032;61;20364;-63
2023/07/29 08:19:40;0.00;0.00;0.62;0.00;0.00;0.62;2.80;1.80;;;29.90;31.50;;;;;;2260431;61;20379;-63
2023/07/29 08:22:25;0.00;0.00;0.62;0.00;0.00;0.62;2.30;1.70;;;29.90;31.50;;;;;;2264247;61;20416;-62
2023/07/29 08:25:10;0.00;0.00;0.62;0.00;0.00;0.62;2.30;1.50;;;29.90;31.60;;;;;;2261167;61;20408;-63
2023/07/29 08:27:55;0.00;0.00;0.62;0.00;0.00;0.62;1.73;1.33;;;29.90;31.60;;;;;;2263938;61;20443;-63
2023/07/29 08:30:39;0.00;0.00;0.62;0.00;0.00;0.62;1.73;1.43;;;29.80;31.60;;;;;;2260276;61;20412;-63
2023/07/29 08:33:26;0.00;0.00;0.62;0.00;0.00;0.62;2.33;1.60;;;29.90;31.60;;;;;;2263727;61;20356;-63
2023/07/29 08:36:11;0.00;0.00;0.62;0.00;0.00;0.62;2.03;1.77;;;29.90;31.60;;;;;;2264214;61;20373;-63
2023/07/29 08:38:56;0.00;0.00;0.62;0.00;0.00;0.62;2.07;1.47;;;29.90;31.60;;;;;;2263310;61;20412;-63
2023/07/29 08:41:56;0.00;0.00;0.62;0.00;0.00;0.62;1.93;1.43;;;29.90;31.60;;;;;;2264125;61;20400;-63
2023/07/29 08:44:43;0.00;0.00;0.62;0.00;0.00;0.62;1.60;1.10;;;29.90;31.60;;;;;;2263467;61;20863;-61
2023/07/29 08:47:28;0.00;0.00;0.62;0.00;0.00;0.62;1.80;1.50;;;29.90;31.60;;;;;;2264243;61;20353;-63
2023/07/29 08:50:16;0.00;0.00;0.62;0.00;0.00;0.62;2.10;1.40;;;29.90;31.60;;;;;;2263158;61;20977;-63
2023/07/29 08:53:03;0.00;0.00;0.62;0.00;0.00;0.62;2.00;1.50;;;29.90;31.60;;;;;;2263753;61;20393;-62
2023/07/29 08:55:48;0.00;0.00;0.62;0.00;0.00;0.62;1.87;1.60;;;29.90;31.60;;;;;;2264160;61;20518;-63
2023/07/29 08:58:34;0.00;0.00;0.62;0.00;0.00;0.62;2.33;1.40;;;29.90;31.60;;;;;;2263900;61;20481;-62
2023/07/29 09:01:19;0.00;0.00;0.62;0.00;0.00;0.62;2.20;1.70;;;29.90;31.60;;;;;;2263374;61;20465;-62
2023/07/29 09:04:04;0.00;0.00;0.62;0.00;0.00;0.62;2.00;1.80;;;29.90;31.60;;;;;;2263703;61;20393;-63
2023/07/29 09:06:52;0.00;0.00;0.62;0.00;0.00;0.62;2.33;1.70;;;29.90;31.70;;;;;;2259431;61;21010;-62
2023/07/29 09:09:36;0.00;0.00;0.62;0.00;0.00;0.62;2.23;1.83;;;29.90;31.70;;;;;;2259400;61;20844;-63
2023/07/29 09:12:22;0.00;0.00;0.62;0.00;0.00;0.62;1.87;1.60;;;29.90;31.60;;;;;;2259786;61;20405;-63
2023/07/29 09:15:09;0.00;0.00;0.62;0.00;0.00;0.62;2.50;2.00;;;29.90;31.60;;;;;;2259889;61;20845;-63
2023/07/29 09:17:54;0.00;0.00;0.62;0.00;0.00;0.62;2.10;1.90;;;29.90;31.70;;;;;;2260052;61;20390;-63
2023/07/29 09:20:39;0.00;0.00;0.62;0.00;0.00;0.62;2.00;1.67;;;29.90;31.70;;;;;;2256721;61;20397;-62
2023/07/29 09:23:27;0.00;0.00;0.62;0.00;0.00;0.62;2.33;2.00;;;29.90;31.80;;;;;;2259756;61;20369;-66
2023/07/29 09:26:12;0.00;0.00;0.62;0.00;0.00;0.62;2.50;1.70;;;29.90;31.80;;;;;;2259970;61;20369;-62
2023/07/29 09:28:58;0.00;0.00;0.62;0.00;0.00;0.62;2.20;2.00;;;30.00;31.80;;;;;;2259715;61;20381;-66
2023/07/29 09:31:43;0.00;0.00;0.62;0.00;0.00;0.62;2.37;2.10;;;29.90;31.80;;;;;;2260077;61;20504;-62
2023/07/29 09:34:29;0.00;0.00;0.62;0.00;0.00;0.62;1.90;1.70;;;30.00;31.90;;;;;;2260013;61;20369;-63
2023/07/29 09:37:17;0.00;0.00;0.62;0.00;0.00;0.62;2.30;1.80;;;30.00;31.90;;;;;;2259693;61;20361;-62
2023/07/29 09:40:06;0.00;0.00;0.62;0.00;0.00;0.62;2.20;2.00;;;30.00;31.90;;;;;;2259450;61;20773;-64
2023/07/29 09:42:52;0.00;0.00;0.62;0.00;0.00;0.62;2.20;1.93;;;30.00;31.90;;;;;;2256689;61;20906;-67
2023/07/29 09:45:38;0.00;0.00;0.62;0.00;0.00;0.62;2.43;2.20;;;30.00;31.90;;;;;;2259467;61;20493;-63
2023/07/29 09:48:23;0.00;0.00;0.62;0.00;0.00;0.62;2.57;2.37;;;30.00;31.90;;;;;;2259827;61;20937;-65
2023/07/29 09:51:11;0.00;0.00;0.62;0.00;0.00;0.62;2.70;2.23;;;30.00;32.00;;;;;;2259686;61;20400;-70
2023/07/29 09:53:58;0.00;0.00;0.62;0.00;0.00;0.62;2.60;2.23;;;30.00;32.00;;;;;;2260017;61;20419;-63
2023/07/29 09:56:44;0.00;0.00;0.62;0.00;0.00;0.62;2.90;2.60;;;30.00;32.00;;;;;;2259781;61;20385;-63
2023/07/29 09:59:33;0.00;0.00;0.62;0.00;0.00;0.62;2.80;2.20;;;30.00;32.10;;;;;;2259136;61;20390;-64
2023/07/29 10:02:20;0.00;0.00;0.62;0.00;0.00;0.62;3.53;3.23;;;30.00;32.10;;;;;;2260063;61;20397;-64
2023/07/29 10:05:07;0.00;0.00;0.62;0.00;0.00;0.62;2.50;2.30;;;30.00;32.10;;;;;;2262657;61;20427;-64
2023/07/29 10:07:54;0.00;0.00;0.62;0.00;0.00;0.62;3.50;3.00;;;30.00;32.10;;;;;;2263769;61;20384;-64
2023/07/29 10:10:38;0.00;0.00;0.62;0.00;0.00;0.62;2.90;2.70;;;30.00;32.10;;;;;;2263663;61;20372;-64
2023/07/29 10:13:26;0.00;0.00;0.62;0.00;0.00;0.62;3.57;3.20;;;30.00;32.10;;;;;;2263632;61;20908;-63
2023/07/29 10:16:11;0.00;0.00;0.62;0.00;0.00;0.62;3.40;3.10;;;30.00;32.10;;;;;;2264239;61;20453;-63
2023/07/29 10:18:57;0.00;0.00;0.62;0.00;0.00;0.62;3.33;3.00;;;30.00;32.10;;;;;;2263623;61;20458;-65
2023/07/29 10:21:47;0.00;0.00;0.62;0.00;0.00;0.62;3.50;3.20;;;30.10;32.20;;;;;;2264001;61;20381;-64
2023/07/29 10:24:34;0.00;0.00;0.62;0.00;0.00;0.62;3.53;3.23;;;30.10;32.20;;;;;;2260897;61;20456;-64
2023/07/29 10:27:21;0.00;0.00;0.62;0.00;0.00;0.62;3.47;3.17;;;30.10;32.20;;;;;;2263968;61;20384;-64
2023/07/29 10:30:10;0.00;0.00;0.62;0.00;0.00;0.62;3.40;3.10;;;30.10;32.90;;;;;;2263292;61;20381;-64
2023/07/29 10:32:58;0.00;0.00;0.62;0.00;0.00;0.62;3.17;2.87;;;30.10;32.20;;;;;;2264328;61;20361;-63
2023/07/29 10:35:44;0.00;0.00;0.62;0.00;0.00;0.62;3.33;3.03;;;30.10;32.20;;;;;;2260471;61;20384;-63
2023/07/29 10:38:29;0.00;0.00;0.62;0.00;0.00;0.62;3.07;2.77;;;30.10;32.20;;;;;;2263270;61;20435;-64
2023/07/29 10:41:14;0.00;0.00;0.62;0.00;0.00;0.62;3.57;3.27;;;30.10;32.20;;;;;;2259672;61;20484;-63
2023/07/29 10:43:58;0.00;0.00;0.62;0.00;0.00;0.62;3.00;2.70;;;30.10;32.20;;;;;;2259521;61;20822;-63
2023/07/29 10:46:44;0.00;0.00;0.62;0.00;0.00;0.62;3.97;3.20;;;30.10;32.20;;;;;;2260036;61;20776;-64
2023/07/29 10:49:31;0.00;0.00;0.62;0.00;0.00;0.62;3.00;2.70;;;30.10;32.20;;;;;;2259535;61;20393;-64
2023/07/29 10:52:27;0.00;0.00;0.62;0.00;0.00;0.62;3.40;3.10;;;30.10;32.20;;;;;;2259522;61;20415;-65
2023/07/29 10:55:27;0.00;0.00;0.62;0.00;0.00;0.62;3.43;3.13;;;30.10;32.10;;;;;;2259981;61;20356;-63